CheckWX is a tool to help pilots better visualize weather data.  It is not intended as a substitute for an official pre-flight weather briefing.

13:59:43 UTC

KVBW METAR
Bridgewater Airpark
Bridgewater, Virginia, USA
Current

25 mins ago

KVBW 191335Z AUTO 02005KT 10SM CLR 05/M05 A3030 RMK AO1 T00451055
Observed
Feb-19 @ 13:35 UTC
Wind
  • 020° at 5 KTS
Visibility
10 SM
Flight Rules
VFR
Cloud Levels
  • Clear skies
Temperature
C / 41°F
Dewpoint
-6°C / 21°F
Humidity
45%
Altimeter
30.3" Hg
Pressure
1026.12 hPa
Previous

45 mins ago

KVBW 191315Z AUTO 06003KT 10SM CLR 04/M02 A3029 RMK AO1 T00431023
Observed
Feb-19 @ 13:15 UTC
Wind
  • 060° at 3 KTS
Visibility
10 SM
Flight Rules
VFR
Cloud Levels
  • Clear skies
Temperature
C / 39°F
Dewpoint
-2°C / 28°F
Humidity
65%
Altimeter
30.29" Hg
Pressure
1025.72 hPa
Previous

1 hour ago

KVBW 191255Z AUTO 05004KT 10SM CLR 05/M04 A3028 RMK AO1 T00471037
Observed
Feb-19 @ 12:55 UTC
Wind
  • 050° at 4 KTS
Visibility
10 SM
Flight Rules
VFR
Cloud Levels
  • Clear skies
Temperature
C / 41°F
Dewpoint
-4°C / 25°F
Humidity
53%
Altimeter
30.28" Hg
Pressure
1025.42 hPa